Gentle Leader — C6WY9 — position and weather

sailwx.info

Track history (hours):
 
Tides and Currents Weather Stations Pressure Air Temp Water Temp Dewpoint Dewpoint Depression Visibility Wind Speed Wind Dir Waves Ship Positions

Gentle Leader

Last reported at 2014-Sep-13 18:33 UTC. Time now 2014-Sep-16 02:57 UTC.
Position N 40°27' W 066°34'.

Length 200 m; draft 8.1 m.

Type: Cargo ship. MMSI: 311003300.

Date/timePositionNaut miles runAvg speedWind from/ knotsBaromVisibWave heightAir tempDewpointWater temp
2014-Sep-13 18:33N 40°27' W 066°34'5516.9
2014-Sep-13 15:18N 40°26' W 067°46'1316.3
2014-Sep-13 14:31N 40°26' W 068°03'1415.0
2014-Sep-13 13:33N 40°27' W 068°22'1513.9
2014-Sep-13 12:30N 40°33' W 068°40'1414.9
2014-Sep-13 11:33N 40°41' W 068°54'1313.1
2014-Sep-13 10:33N 40°52' W 069°05'1312.2
2014-Sep-13 09:29N 41°04' W 069°12'1212.6
2014-Sep-13 08:32N 41°14' W 069°20'1212.0
2014-Sep-13 07:33N 41°25' W 069°27'1211.9
2014-Sep-13 06:33N 41°35' W 069°34'1211.3
2014-Sep-13 05:32N 41°46' W 069°41'1111.0
2014-Sep-13 04:33N 41°55' W 069°48'1111.2
2014-Sep-13 03:33N 42°05' W 069°54'1211.5
2014-Sep-13 02:33N 42°15' W 070°01'1010.5
2014-Sep-13 01:33N 42°18' W 070°15'1211.7
2014-Sep-13 00:34N 42°19' W 070°31'1110.9
2014-Sep-12 23:33N 42°23' W 070°45'1110.9
2014-Sep-12 22:33N 42°20' W 070°59'2 0.2
2014-Sep-12 09:11N 42°21' W 071°02'6 7.6
2014-Sep-12 08:21N 42°23' W 070°54'7 7.2
2014-Sep-12 07:20N 42°21' W 070°44'7 9.2
2014-Sep-12 06:33N 42°16' W 070°37'13 8.8
2014-Sep-12 05:04N 42°04' W 070°29'5 9.1
2014-Sep-12 04:28N 41°59' W 070°28'12 6.1
2014-Sep-12 02:33N 41°47' W 070°28'1310.5
2014-Sep-12 01:21N 41°39' W 070°41'8 9.7
2014-Sep-12 00:33N 41°33' W 070°46'1212.3
2014-Sep-11 23:33N 41°27' W 071°01'9 9.3
2014-Sep-11 22:33N 41°24' W 071°13'8 8.2
2014-Sep-11 21:33N 41°28' W 071°22'9 8.8
2014-Sep-11 20:33N 41°37' W 071°24'0 0.0
2014-Sep-11 19:31N 41°37' W 071°24'0 0.0
2014-Sep-11 18:31N 41°37' W 071°24'0 0.0
2014-Sep-11 17:31N 41°37' W 071°24'0 0.0
2014-Sep-11 16:31N 41°37' W 071°24'0 0.0
2014-Sep-11 15:31N 41°37' W 071°24'0 0.0
2014-Sep-11 14:28N 41°37' W 071°24'0 0.0
2014-Sep-11 13:31N 41°37' W 071°24'0 0.0
2014-Sep-11 12:31N 41°37' W 071°24'0 0.0
2014-Sep-11 11:31N 41°37' W 071°24'0 0.0
2014-Sep-11 10:31N 41°37' W 071°24'0 0.3
2014-Sep-11 09:33N 41°37' W 071°24'7 6.7
2014-Sep-11 08:34N 41°30' W 071°21'9 9.1
2014-Sep-11 07:33N 41°21' W 071°21'9 8.6
2014-Sep-11 06:33N 41°13' W 071°21'8 8.5
2014-Sep-11 05:33N 41°04' W 071°21'8 8.2
2014-Sep-11 04:33N 40°58' W 071°28'9 8.8
2014-Sep-11 03:33N 40°52' W 071°36'10 9.5
2014-Sep-11 02:33N 40°45' W 071°45'1010.0
2014-Sep-11 01:33N 40°38' W 071°54'1010.2
2014-Sep-11 00:33N 40°30' W 072°03'1010.2
2014-Sep-10 23:33N 40°23' W 072°13'1111.2
2014-Sep-10 22:33N 40°15' W 072°23'1111.4
2014-Sep-10 21:33N 40°07' W 072°34'1111.3
2014-Sep-10 20:33N 39°59' W 072°44'1211.7
2014-Sep-10 19:33N 39°51' W 072°55'1312.0
2014-Sep-10 18:28N 39°42' W 073°07'10410.5
2014-Sep-10 08:30N 38°51' W 075°05'3417.4
2014-Sep-10 06:33N 39°21' W 075°26'34 7.9
2014-Sep-10 02:12N 39°21' W 076°10'812.7
2014-Sep-10 01:33N 39°13' W 076°15'1111.0
2014-Sep-10 00:33N 39°11' W 076°29'5 4.7
2014-Sep-09 23:34N 39°15' W 076°32'0 0.0
2014-Sep-09 22:33N 39°15' W 076°32'0 0.0
2014-Sep-09 21:30N 39°15' W 076°32'0 0.0
2014-Sep-09 20:30N 39°15' W 076°32'0 0.0
2014-Sep-09 19:33N 39°15' W 076°32'0 0.0
2014-Sep-09 18:33N 39°15' W 076°32'0 0.0
2014-Sep-09 17:33N 39°15' W 076°32'0 0.0
2014-Sep-09 16:33N 39°15' W 076°32'0 0.0
2014-Sep-09 15:33N 39°15' W 076°32'0 0.0
2014-Sep-09 14:33N 39°15' W 076°32'0 0.0
2014-Sep-09 13:33N 39°15' W 076°32'0 0.0
2014-Sep-09 12:33N 39°15' W 076°32'0 0.0
2014-Sep-09 11:33N 39°15' W 076°32'0 0.0
2014-Sep-09 10:33N 39°15' W 076°32'0 0.0
2014-Sep-09 09:33N 39°15' W 076°32'0 0.0
2014-Sep-09 08:33N 39°15' W 076°32'0 0.0
2014-Sep-09 07:33N 39°15' W 076°32'0 0.0
2014-Sep-09 06:33N 39°15' W 076°32'0 0.0
2014-Sep-09 05:33N 39°15' W 076°32'0 0.0
2014-Sep-09 04:33N 39°15' W 076°32'0 0.0
2014-Sep-09 03:27N 39°15' W 076°32'0 0.0
2014-Sep-09 02:33N 39°15' W 076°32'0 0.0
2014-Sep-09 01:33N 39°15' W 076°32'0 0.0
2014-Sep-09 00:33N 39°15' W 076°32'0 0.0
2014-Sep-08 23:33N 39°15' W 076°32'0 0.0
2014-Sep-08 22:33N 39°15' W 076°32'0 0.0
2014-Sep-08 21:33N 39°15' W 076°32'0 0.0
2014-Sep-08 20:30N 39°15' W 076°32'0 0.0
2014-Sep-08 19:27N 39°15' W 076°32'0 0.0
2014-Sep-08 18:33N 39°15' W 076°32'0 0.0
2014-Sep-08 17:27N 39°15' W 076°32'0 0.0
2014-Sep-08 16:27N 39°15' W 076°32'0 0.0
2014-Sep-08 15:33N 39°15' W 076°32'0 0.0
2014-Sep-08 14:30N 39°15' W 076°32'0 0.0
2014-Sep-08 13:30N 39°15' W 076°32'0 0.0
2014-Sep-08 12:30N 39°15' W 076°32'0 0.0
2014-Sep-08 11:30N 39°15' W 076°32'0 0.0
2014-Sep-08 10:30N 39°15' W 076°32'0 0.0
2014-Sep-08 09:33N 39°15' W 076°32'0 0.0
2014-Sep-08 08:33N 39°15' W 076°32'0 0.0
2014-Sep-08 07:33N 39°15' W 076°32'0 0.0
2014-Sep-08 06:33N 39°15' W 076°32'0 0.0
2014-Sep-08 05:33N 39°15' W 076°32'0 0.0
2014-Sep-08 04:30N 39°15' W 076°32'0 0.0
2014-Sep-08 03:33N 39°15' W 076°32'0 0.0
2014-Sep-08 02:33N 39°15' W 076°32'0 0.0
2014-Sep-08 01:30N 39°15' W 076°32'0 0.0
2014-Sep-08 00:30N 39°15' W 076°32'0 0.0
2014-Sep-07 23:33N 39°15' W 076°32'11 5.6
2014-Sep-07 21:33N 39°06' W 076°24'1616.0
2014-Sep-07 20:33N 38°50' W 076°24'8717.4
2014-Sep-07 15:33N 37°25' W 076°05'1717.3
2014-Sep-07 14:33N 37°07' W 076°08'1515.4
2014-Sep-07 13:33N 36°56' W 075°56'38610.2
2014-Sep-05 23:34N 32°05' W 081°04'2 1.9
2014-Sep-05 22:33N 32°05' W 081°06'0 0.0
2014-Sep-05 21:33N 32°05' W 081°06'0 0.0
2014-Sep-05 19:33N 32°05' W 081°06'0 0.0
2014-Sep-05 18:33N 32°05' W 081°06'0 0.0
2014-Sep-05 17:33N 32°05' W 081°06'0 0.0
2014-Sep-05 16:33N 32°05' W 081°06'0 0.0
2014-Sep-05 15:33N 32°05' W 081°06'0 0.0
2014-Sep-05 14:33N 32°05' W 081°06'0 0.0
2014-Sep-05 13:33N 32°05' W 081°06'0 0.0
2014-Sep-05 12:27N 32°05' W 081°06'0 0.0
2014-Sep-05 11:06N 32°05' W 081°06'0 0.0
2014-Sep-05 09:33N 32°05' W 081°06'0 0.0
2014-Sep-05 07:33N 32°05' W 081°06'1 1.0
2014-Sep-05 06:33N 32°06' W 081°07'  
Track history (hours):
 
Tides and Currents Weather Stations Pressure Air Temp Water Temp Dewpoint Dewpoint Depression Visibility Wind Speed Wind Dir Waves Ship Positions

Gentle Leader

Last reported at 2014-Sep-13 18:33 UTC. Time now 2014-Sep-16 02:57 UTC.
Position N 40°27' W 066°34'.

Length 200 m; draft 8.1 m.

Type: Cargo ship. MMSI: 311003300.

Date/timePositionNaut miles runAvg speedWind from/ knotsBaromVisibWave heightAir tempDewpointWater temp
2014-Sep-13 18:33N 40°27' W 066°34'5516.9
2014-Sep-13 15:18N 40°26' W 067°46'1316.3
2014-Sep-13 14:31N 40°26' W 068°03'1415.0
2014-Sep-13 13:33N 40°27' W 068°22'1513.9
2014-Sep-13 12:30N 40°33' W 068°40'1414.9
2014-Sep-13 11:33N 40°41' W 068°54'1313.1
2014-Sep-13 10:33N 40°52' W 069°05'1312.2
2014-Sep-13 09:29N 41°04' W 069°12'1212.6
2014-Sep-13 08:32N 41°14' W 069°20'1212.0
2014-Sep-13 07:33N 41°25' W 069°27'1211.9
2014-Sep-13 06:33N 41°35' W 069°34'1211.3
2014-Sep-13 05:32N 41°46' W 069°41'1111.0
2014-Sep-13 04:33N 41°55' W 069°48'1111.2
2014-Sep-13 03:33N 42°05' W 069°54'1211.5
2014-Sep-13 02:33N 42°15' W 070°01'1010.5
2014-Sep-13 01:33N 42°18' W 070°15'1211.7
2014-Sep-13 00:34N 42°19' W 070°31'1110.9
2014-Sep-12 23:33N 42°23' W 070°45'1110.9
2014-Sep-12 22:33N 42°20' W 070°59'2 0.2
2014-Sep-12 09:11N 42°21' W 071°02'6 7.6
2014-Sep-12 08:21N 42°23' W 070°54'7 7.2
2014-Sep-12 07:20N 42°21' W 070°44'7 9.2
2014-Sep-12 06:33N 42°16' W 070°37'13 8.8
2014-Sep-12 05:04N 42°04' W 070°29'5 9.1
2014-Sep-12 04:28N 41°59' W 070°28'12 6.1
2014-Sep-12 02:33N 41°47' W 070°28'1310.5
2014-Sep-12 01:21N 41°39' W 070°41'8 9.7
2014-Sep-12 00:33N 41°33' W 070°46'1212.3
2014-Sep-11 23:33N 41°27' W 071°01'9 9.3
2014-Sep-11 22:33N 41°24' W 071°13'8 8.2
2014-Sep-11 21:33N 41°28' W 071°22'9 8.8
2014-Sep-11 20:33N 41°37' W 071°24'0 0.0
2014-Sep-11 19:31N 41°37' W 071°24'0 0.0
2014-Sep-11 18:31N 41°37' W 071°24'0 0.0
2014-Sep-11 17:31N 41°37' W 071°24'0 0.0
2014-Sep-11 16:31N 41°37' W 071°24'0 0.0
2014-Sep-11 15:31N 41°37' W 071°24'0 0.0
2014-Sep-11 14:28N 41°37' W 071°24'0 0.0
2014-Sep-11 13:31N 41°37' W 071°24'0 0.0
2014-Sep-11 12:31N 41°37' W 071°24'0 0.0
2014-Sep-11 11:31N 41°37' W 071°24'0 0.0
2014-Sep-11 10:31N 41°37' W 071°24'0 0.3
2014-Sep-11 09:33N 41°37' W 071°24'7 6.7
2014-Sep-11 08:34N 41°30' W 071°21'9 9.1
2014-Sep-11 07:33N 41°21' W 071°21'9 8.6
2014-Sep-11 06:33N 41°13' W 071°21'8 8.5
2014-Sep-11 05:33N 41°04' W 071°21'8 8.2
2014-Sep-11 04:33N 40°58' W 071°28'9 8.8
2014-Sep-11 03:33N 40°52' W 071°36'10 9.5
2014-Sep-11 02:33N 40°45' W 071°45'1010.0
2014-Sep-11 01:33N 40°38' W 071°54'1010.2
2014-Sep-11 00:33N 40°30' W 072°03'1010.2
2014-Sep-10 23:33N 40°23' W 072°13'1111.2
2014-Sep-10 22:33N 40°15' W 072°23'1111.4
2014-Sep-10 21:33N 40°07' W 072°34'1111.3
2014-Sep-10 20:33N 39°59' W 072°44'1211.7
2014-Sep-10 19:33N 39°51' W 072°55'1312.0
2014-Sep-10 18:28N 39°42' W 073°07'10410.5
2014-Sep-10 08:30N 38°51' W 075°05'3417.4
2014-Sep-10 06:33N 39°21' W 075°26'34 7.9
2014-Sep-10 02:12N 39°21' W 076°10'812.7
2014-Sep-10 01:33N 39°13' W 076°15'1111.0
2014-Sep-10 00:33N 39°11' W 076°29'5 4.7
2014-Sep-09 23:34N 39°15' W 076°32'0 0.0
2014-Sep-09 22:33N 39°15' W 076°32'0 0.0
2014-Sep-09 21:30N 39°15' W 076°32'0 0.0
2014-Sep-09 20:30N 39°15' W 076°32'0 0.0
2014-Sep-09 19:33N 39°15' W 076°32'0 0.0
2014-Sep-09 18:33N 39°15' W 076°32'0 0.0
2014-Sep-09 17:33N 39°15' W 076°32'0 0.0
2014-Sep-09 16:33N 39°15' W 076°32'0 0.0
2014-Sep-09 15:33N 39°15' W 076°32'0 0.0
2014-Sep-09 14:33N 39°15' W 076°32'0 0.0
2014-Sep-09 13:33N 39°15' W 076°32'0 0.0
2014-Sep-09 12:33N 39°15' W 076°32'0 0.0
2014-Sep-09 11:33N 39°15' W 076°32'0 0.0
2014-Sep-09 10:33N 39°15' W 076°32'0 0.0
2014-Sep-09 09:33N 39°15' W 076°32'0 0.0
2014-Sep-09 08:33N 39°15' W 076°32'0 0.0
2014-Sep-09 07:33N 39°15' W 076°32'0 0.0
2014-Sep-09 06:33N 39°15' W 076°32'0 0.0
2014-Sep-09 05:33N 39°15' W 076°32'0 0.0
2014-Sep-09 04:33N 39°15' W 076°32'0 0.0
2014-Sep-09 03:27N 39°15' W 076°32'0 0.0
2014-Sep-09 02:33N 39°15' W 076°32'0 0.0
2014-Sep-09 01:33N 39°15' W 076°32'0 0.0
2014-Sep-09 00:33N 39°15' W 076°32'0 0.0
2014-Sep-08 23:33N 39°15' W 076°32'0 0.0
2014-Sep-08 22:33N 39°15' W 076°32'0 0.0
2014-Sep-08 21:33N 39°15' W 076°32'0 0.0
2014-Sep-08 20:30N 39°15' W 076°32'0 0.0
2014-Sep-08 19:27N 39°15' W 076°32'0 0.0
2014-Sep-08 18:33N 39°15' W 076°32'0 0.0
2014-Sep-08 17:27N 39°15' W 076°32'0 0.0
2014-Sep-08 16:27N 39°15' W 076°32'0 0.0
2014-Sep-08 15:33N 39°15' W 076°32'0 0.0
2014-Sep-08 14:30N 39°15' W 076°32'0 0.0
2014-Sep-08 13:30N 39°15' W 076°32'0 0.0
2014-Sep-08 12:30N 39°15' W 076°32'0 0.0
2014-Sep-08 11:30N 39°15' W 076°32'0 0.0
2014-Sep-08 10:30N 39°15' W 076°32'0 0.0
2014-Sep-08 09:33N 39°15' W 076°32'0 0.0
2014-Sep-08 08:33N 39°15' W 076°32'0 0.0
2014-Sep-08 07:33N 39°15' W 076°32'0 0.0
2014-Sep-08 06:33N 39°15' W 076°32'0 0.0
2014-Sep-08 05:33N 39°15' W 076°32'0 0.0
2014-Sep-08 04:30N 39°15' W 076°32'0 0.0
2014-Sep-08 03:33N 39°15' W 076°32'0 0.0
2014-Sep-08 02:33N 39°15' W 076°32'0 0.0
2014-Sep-08 01:30N 39°15' W 076°32'0 0.0
2014-Sep-08 00:30N 39°15' W 076°32'0 0.0
2014-Sep-07 23:33N 39°15' W 076°32'11 5.6
2014-Sep-07 21:33N 39°06' W 076°24'1616.0
2014-Sep-07 20:33N 38°50' W 076°24'8717.4
2014-Sep-07 15:33N 37°25' W 076°05'1717.3
2014-Sep-07 14:33N 37°07' W 076°08'1515.4
2014-Sep-07 13:33N 36°56' W 075°56'38610.2
2014-Sep-05 23:34N 32°05' W 081°04'2 1.9
2014-Sep-05 22:33N 32°05' W 081°06'0 0.0
2014-Sep-05 21:33N 32°05' W 081°06'0 0.0
2014-Sep-05 19:33N 32°05' W 081°06'0 0.0
2014-Sep-05 18:33N 32°05' W 081°06'0 0.0
2014-Sep-05 17:33N 32°05' W 081°06'0 0.0
2014-Sep-05 16:33N 32°05' W 081°06'0 0.0
2014-Sep-05 15:33N 32°05' W 081°06'0 0.0
2014-Sep-05 14:33N 32°05' W 081°06'0 0.0
2014-Sep-05 13:33N 32°05' W 081°06'0 0.0
2014-Sep-05 12:27N 32°05' W 081°06'0 0.0
2014-Sep-05 11:06N 32°05' W 081°06'0 0.0
2014-Sep-05 09:33N 32°05' W 081°06'0 0.0
2014-Sep-05 07:33N 32°05' W 081°06'1 1.0
2014-Sep-05 06:33N 32°06' W 081°07'  

Dump ship's entire track history